Time;durP1;ratioP1;P1;durP2;ratioP2;P2;SDS_P1;SDS_P2;PMS_P1;PMS_P2;Temp;Humidity;BMP_temperature;BMP_pressure;BME280_temperature;BME280_humidity;BME280_pressure;Samples;Min_cycle;Max_cycle;Signal;HPM_P1;HPM_P2
2022/08/23 00:01:38;;;;;;;5.28;2.10;;;22.30;99.90;;;;;;5086661;28;20382;-62
2022/08/23 00:04:11;;;;;;;4.90;2.03;;;22.20;99.90;;;;;;5087652;28;20609;-62
2022/08/23 00:06:37;;;;;;;2.90;1.70;;;22.20;99.90;;;;;;5089140;28;20446;-62
2022/08/23 00:09:04;;;;;;;4.00;1.77;;;22.10;99.90;;;;;;5087228;28;20390;-62
2022/08/23 00:11:38;;;;;;;3.92;1.90;;;22.10;99.90;;;;;;5088512;28;20385;-62
2022/08/23 00:14:14;;;;;;;3.08;1.80;;;22.20;99.90;;;;;;5086808;28;20844;-62
2022/08/23 00:16:41;;;;;;;4.47;1.67;;;22.20;99.90;;;;;;5086772;28;20662;-62
2022/08/23 00:19:09;;;;;;;3.33;1.80;;;22.20;99.90;;;;;;5084987;28;20841;-62
2022/08/23 00:21:36;;;;;;;2.75;1.65;;;22.10;99.90;;;;;;5085187;28;20781;-62
2022/08/23 00:24:03;;;;;;;3.85;1.90;;;22.10;99.90;;;;;;5084556;28;20386;-62
2022/08/23 00:27:03;;;;;;;5.88;1.83;;;22.10;99.90;;;;;;5082089;28;20377;-61
2022/08/23 00:29:34;;;;;;;3.47;1.70;;;22.10;99.90;;;;;;5076191;28;20382;-62
2022/08/23 00:32:00;;;;;;;3.88;1.88;;;22.10;99.90;;;;;;5083968;28;20713;-62
2022/08/23 00:34:27;;;;;;;3.15;1.80;;;22.00;99.90;;;;;;5098841;28;20438;-62
2022/08/23 00:36:52;;;;;;;4.68;1.73;;;22.00;99.90;;;;;;5105614;28;20959;-63
2022/08/23 00:39:18;;;;;;;3.43;1.83;;;22.00;99.90;;;;;;5087809;28;20381;-62
2022/08/23 00:41:46;;;;;;;4.37;1.90;;;22.00;99.90;;;;;;5089021;28;20380;-62
2022/08/23 00:50:09;;;;;;;3.55;1.95;;;22.00;99.90;;;;;;5110999;28;20442;-62
2022/08/23 00:52:50;;;;;;;2.53;1.58;;;22.00;99.90;;;;;;5095666;28;20376;-62
2022/08/23 00:55:18;;;;;;;4.72;1.70;;;22.00;99.90;;;;;;5096457;28;20494;-62
2022/08/23 00:57:44;;;;;;;3.85;1.77;;;22.00;99.90;;;;;;5093965;28;20380;-63
2022/08/23 01:00:11;;;;;;;5.13;2.10;;;22.00;99.90;;;;;;5095473;28;20384;-62
2022/08/23 01:02:37;;;;;;;4.18;1.83;;;21.90;99.90;;;;;;5113114;28;20637;-62
2022/08/23 01:05:05;;;;;;;5.22;2.10;;;21.90;99.90;;;;;;5094389;28;20657;-62
2022/08/23 01:07:50;;;;;;;4.47;1.63;;;21.90;99.90;;;;;;5094207;28;20388;-62
2022/08/23 01:10:20;;;;;;;4.60;2.03;;;21.90;99.90;;;;;;5092181;28;20668;-62
2022/08/23 01:12:51;;;;;;;3.70;2.00;;;21.90;99.90;;;;;;5091444;28;20468;-62
2022/08/23 01:15:23;;;;;;;3.88;1.70;;;21.90;99.90;;;;;;5091871;28;20454;-62
2022/08/23 01:18:05;;;;;;;5.27;1.93;;;21.80;99.90;;;;;;5091776;28;20713;-62
2022/08/23 01:20:41;;;;;;;3.53;1.90;;;21.80;99.90;;;;;;5110138;28;20373;-61
2022/08/23 01:23:44;;;;;;;3.20;1.83;;;21.80;99.90;;;;;;5093179;28;20404;-62
2022/08/23 01:26:13;;;;;;;3.33;2.03;;;21.80;99.90;;;;;;5092380;28;20691;-62
2022/08/23 01:28:39;;;;;;;5.20;2.08;;;21.70;99.90;;;;;;5093360;28;20449;-62
2022/08/23 01:31:06;;;;;;;3.40;1.75;;;21.70;99.90;;;;;;5093905;28;20380;-62
2022/08/23 01:33:32;;;;;;;4.10;1.77;;;21.70;99.90;;;;;;5094239;28;20412;-62
2022/08/23 01:35:59;;;;;;;3.63;2.05;;;21.70;99.90;;;;;;5112998;28;20441;-62
2022/08/23 01:38:26;;;;;;;3.13;2.00;;;21.70;99.90;;;;;;5093252;28;20776;-62
2022/08/23 01:40:52;;;;;;;4.63;1.90;;;21.70;99.90;;;;;;5094608;28;20444;-62
2022/08/23 01:43:20;;;;;;;5.43;1.97;;;21.60;99.90;;;;;;5095291;28;20384;-62
2022/08/23 01:45:48;;;;;;;6.70;2.33;;;21.60;99.90;;;;;;5095637;28;20387;-62
2022/08/23 01:48:14;;;;;;;3.78;2.00;;;21.60;99.90;;;;;;5095038;28;20464;-62
2022/08/23 01:50:40;;;;;;;3.33;2.00;;;21.60;99.90;;;;;;5091969;28;20434;-62
2022/08/23 01:53:06;;;;;;;4.35;2.00;;;21.60;99.90;;;;;;5091631;28;20372;-62
2022/08/23 01:55:32;;;;;;;5.07;2.30;;;21.60;99.90;;;;;;5092403;28;20457;-61
2022/08/23 01:58:01;;;;;;;3.47;1.80;;;21.60;99.90;;;;;;5111302;28;20392;-62
2022/08/23 02:00:31;;;;;;;3.17;2.00;;;21.50;99.90;;;;;;5110951;28;20464;-62
2022/08/23 02:02:59;;;;;;;3.20;1.73;;;21.50;99.90;;;;;;5092060;28;20399;-62
2022/08/23 02:05:25;;;;;;;4.45;2.00;;;21.50;99.90;;;;;;5090235;28;20387;-61
2022/08/23 02:07:51;;;;;;;3.35;1.90;;;21.50;99.90;;;;;;5092304;28;20788;-62
2022/08/23 02:10:17;;;;;;;4.57;2.00;;;21.50;99.90;;;;;;5091480;28;20539;-62
2022/08/23 02:12:43;;;;;;;4.45;2.00;;;21.50;99.90;;;;;;5092028;28;20380;-62
2022/08/23 02:15:09;;;;;;;4.80;1.85;;;21.50;99.90;;;;;;5109175;28;20633;-62
2022/08/23 02:17:34;;;;;;;4.10;2.00;;;21.50;99.90;;;;;;5109170;28;20796;-62
2022/08/23 02:20:03;;;;;;;4.87;2.00;;;21.50;99.90;;;;;;5091586;28;20753;-62
2022/08/23 02:22:28;;;;;;;4.40;2.00;;;21.40;99.90;;;;;;5090962;28;20505;-62
2022/08/23 02:24:54;;;;;;;3.70;2.00;;;21.40;99.90;;;;;;5091345;28;20384;-62
2022/08/23 02:27:20;;;;;;;4.18;2.08;;;21.40;99.90;;;;;;5092556;28;20541;-62
2022/08/23 02:29:46;;;;;;;3.60;2.08;;;21.40;99.90;;;;;;5092332;28;20396;-63
2022/08/23 02:32:15;;;;;;;3.67;1.95;;;21.30;99.90;;;;;;5094382;28;20380;-63
2022/08/23 02:34:41;;;;;;;3.17;1.85;;;21.30;99.90;;;;;;5093627;28;20451;-62
2022/08/23 02:37:08;;;;;;;3.92;1.90;;;21.30;99.90;;;;;;5092359;28;20694;-64
2022/08/23 02:39:35;;;;;;;4.03;1.83;;;21.20;99.90;;;;;;5091275;28;20383;-62
2022/08/23 02:42:01;;;;;;;5.63;2.15;;;21.20;99.90;;;;;;5092230;28;20388;-62
2022/08/23 02:44:27;;;;;;;4.70;2.20;;;21.20;99.90;;;;;;5093326;28;20796;-62
2022/08/23 02:46:52;;;;;;;3.97;2.03;;;21.30;99.90;;;;;;5093371;28;20415;-62
2022/08/23 02:49:18;;;;;;;3.35;2.00;;;21.20;99.90;;;;;;5093457;28;20400;-62
2022/08/23 02:51:45;;;;;;;6.20;2.17;;;21.20;99.90;;;;;;5093193;28;20427;-63
2022/08/23 02:54:11;;;;;;;4.07;2.13;;;21.20;99.90;;;;;;5092722;28;20808;-63
2022/08/23 02:56:36;;;;;;;4.80;2.28;;;21.10;99.90;;;;;;5092245;28;20380;-62
2022/08/23 02:59:03;;;;;;;3.95;2.00;;;21.10;99.90;;;;;;5093578;28;20392;-62
2022/08/23 03:01:33;;;;;;;4.25;1.90;;;21.10;99.90;;;;;;5111202;28;20384;-62
2022/08/23 03:04:00;;;;;;;4.75;2.20;;;21.10;99.90;;;;;;5111504;28;20416;-62
2022/08/23 03:06:26;;;;;;;3.53;1.95;;;21.10;99.90;;;;;;5095299;28;20388;-62
2022/08/23 03:08:53;;;;;;;4.10;2.10;;;21.10;99.90;;;;;;5111398;28;20449;-62
2022/08/23 03:11:20;;;;;;;4.90;2.10;;;21.10;99.90;;;;;;5110287;28;20763;-62
2022/08/23 03:13:46;;;;;;;2.85;1.90;;;21.00;99.90;;;;;;5092851;28;20417;-63
2022/08/23 03:16:13;;;;;;;3.80;2.10;;;21.00;99.90;;;;;;5093169;28;20439;-62
2022/08/23 03:18:39;;;;;;;7.28;2.33;;;21.00;99.90;;;;;;5108212;28;20480;-64
2022/08/23 03:21:07;;;;;;;3.03;1.95;;;21.00;99.90;;;;;;5088804;28;20453;-62
2022/08/23 03:23:33;;;;;;;3.67;2.10;;;20.90;99.90;;;;;;5088527;28;20701;-62
2022/08/23 03:26:02;;;;;;;2.95;1.83;;;21.00;99.90;;;;;;5089039;28;20385;-63
2022/08/23 03:28:28;;;;;;;5.47;2.10;;;21.00;99.90;;;;;;5086949;28;20834;-63
2022/08/23 03:30:55;;;;;;;4.75;2.20;;;20.90;99.90;;;;;;5086566;28;20458;-62
2022/08/23 03:33:21;;;;;;;3.50;1.75;;;20.90;99.90;;;;;;5084543;28;20402;-62
2022/08/23 03:35:48;;;;;;;4.73;2.33;;;20.90;99.90;;;;;;5083583;28;20410;-63
2022/08/23 03:38:14;;;;;;;3.75;2.20;;;20.90;99.90;;;;;;5083107;28;20378;-63
2022/08/23 03:40:41;;;;;;;5.75;2.28;;;20.90;99.90;;;;;;5080265;28;20389;-63
2022/08/23 03:43:07;;;;;;;3.50;2.20;;;20.90;99.90;;;;;;5081703;28;20835;-63
2022/08/23 03:45:32;;;;;;;3.60;2.05;;;20.90;99.90;;;;;;5082547;28;20413;-63
2022/08/23 03:47:58;;;;;;;3.33;2.03;;;20.90;99.90;;;;;;5083001;28;20450;-62
2022/08/23 03:50:24;;;;;;;3.37;2.00;;;20.80;99.90;;;;;;5083710;28;20378;-63
2022/08/23 03:52:50;;;;;;;3.35;2.00;;;20.80;99.90;;;;;;5083464;28;20382;-63
2022/08/23 03:55:16;;;;;;;3.83;2.20;;;20.80;99.90;;;;;;5085240;28;20763;-63
2022/08/23 03:57:41;;;;;;;3.90;2.28;;;20.80;99.90;;;;;;5085903;28;20378;-63
2022/08/23 04:00:09;;;;;;;5.80;2.00;;;20.70;99.90;;;;;;5086634;28;20677;-63
2022/08/23 04:02:35;;;;;;;3.55;2.33;;;20.70;99.90;;;;;;5088653;28;20378;-62
2022/08/23 04:05:01;;;;;;;3.00;2.13;;;20.70;99.90;;;;;;5087567;28;20402;-63
2022/08/23 04:07:26;;;;;;;3.50;1.95;;;20.70;99.90;;;;;;5086255;28;20478;-63
2022/08/23 04:09:52;;;;;;;2.60;2.30;;;20.70;99.90;;;;;;5086278;28;20378;-63
2022/08/23 04:12:18;;;;;;;3.13;2.20;;;20.70;99.90;;;;;;5084417;28;20492;-63
2022/08/23 04:14:44;;;;;;;4.63;2.38;;;20.70;99.90;;;;;;5082111;28;20404;-63
2022/08/23 04:17:11;;;;;;;4.70;2.50;;;20.70;99.90;;;;;;5084375;28;20504;-63
2022/08/23 04:19:37;;;;;;;4.65;2.17;;;20.60;99.90;;;;;;5085953;28;20850;-63
2022/08/23 04:22:03;;;;;;;4.15;2.40;;;20.60;99.90;;;;;;5084763;28;20401;-63
2022/08/23 04:24:28;;;;;;;3.38;2.15;;;20.60;99.90;;;;;;5085362;28;20399;-63
2022/08/23 04:26:54;;;;;;;3.83;2.37;;;20.60;99.90;;;;;;5086294;28;20382;-63
2022/08/23 04:29:21;;;;;;;3.25;2.00;;;20.60;99.90;;;;;;5088015;28;20398;-63
2022/08/23 04:31:47;;;;;;;5.15;2.30;;;20.60;99.90;;;;;;5087855;28;20386;-63
2022/08/23 04:34:13;;;;;;;2.58;2.03;;;20.60;99.90;;;;;;5085582;28;20421;-63
2022/08/23 04:36:40;;;;;;;2.67;2.10;;;20.60;99.90;;;;;;5086530;28;20731;-63
2022/08/23 04:39:07;;;;;;;3.72;2.13;;;20.60;99.90;;;;;;5085855;28;20385;-63
2022/08/23 04:44:17;;;;;;;3.55;2.38;;;20.60;99.90;;;;;;5087857;28;20430;-63
2022/08/23 04:46:43;;;;;;;4.90;2.47;;;20.60;99.90;;;;;;5088638;28;20692;-63
2022/08/23 04:49:10;;;;;;;3.72;2.17;;;20.60;99.90;;;;;;5084653;28;20408;-63
2022/08/23 04:51:36;;;;;;;4.95;2.47;;;20.60;99.90;;;;;;5085437;28;20609;-63
2022/08/23 04:54:02;;;;;;;5.25;2.50;;;20.60;99.90;;;;;;5085940;28;20460;-62
2022/08/23 04:56:29;;;;;;;5.68;2.53;;;20.50;99.90;;;;;;5084121;28;20645;-63
2022/08/23 04:58:55;;;;;;;4.95;2.58;;;20.50;99.90;;;;;;5085982;28;20469;-63
2022/08/23 05:01:22;;;;;;;5.82;2.60;;;20.50;99.90;;;;;;5086370;28;20516;-63
2022/08/23 05:03:48;;;;;;;7.60;2.70;;;20.50;99.90;;;;;;5087348;28;20402;-63
2022/08/23 05:06:13;;;;;;;3.03;2.17;;;20.50;99.90;;;;;;5085829;28;20566;-61
2022/08/23 05:08:39;;;;;;;4.90;2.67;;;20.50;99.90;;;;;;5086258;28;20417;-61
2022/08/23 05:11:07;;;;;;;2.97;2.38;;;20.50;99.90;;;;;;5086762;28;20759;-61
2022/08/23 05:13:33;;;;;;;4.33;2.50;;;20.50;99.90;;;;;;5087018;28;20525;-63
2022/08/23 05:15:59;;;;;;;4.47;2.28;;;20.50;99.90;;;;;;5087670;28;20447;-62
2022/08/23 05:18:25;;;;;;;3.42;2.33;;;20.50;99.90;;;;;;5085278;28;20409;-62
2022/08/23 05:20:52;;;;;;;4.47;2.55;;;20.50;99.90;;;;;;5085781;28;20536;-62
2022/08/23 05:23:17;;;;;;;4.45;2.20;;;20.60;99.90;;;;;;5085716;28;20382;-62
2022/08/23 05:25:49;;;;;;;4.90;2.45;;;20.60;99.90;;;;;;5082520;28;21004;-62
2022/08/23 05:28:17;;;;;;;4.70;2.57;;;20.50;99.90;;;;;;5081417;28;20382;-62
2022/08/23 05:30:44;;;;;;;3.88;2.30;;;20.60;99.90;;;;;;5081048;28;20655;-62
2022/08/23 05:33:10;;;;;;;5.00;2.53;;;20.60;99.90;;;;;;5080958;28;20583;-62
2022/08/23 05:35:35;;;;;;;4.83;2.63;;;20.60;99.90;;;;;;5084129;28;20943;-62
2022/08/23 05:38:02;;;;;;;3.77;2.10;;;20.60;99.90;;;;;;5083289;28;20438;-62
2022/08/23 05:40:27;;;;;;;3.47;2.30;;;20.60;99.90;;;;;;5100936;28;20441;-62
2022/08/23 05:42:53;;;;;;;6.18;2.40;;;20.70;99.90;;;;;;5083253;28;20656;-62
2022/08/23 05:45:19;;;;;;;2.47;2.08;;;20.60;99.90;;;;;;5099560;28;20388;-62
2022/08/23 05:47:47;;;;;;;4.82;2.22;;;20.60;99.90;;;;;;5082563;28;20658;-62
2022/08/23 05:50:13;;;;;;;6.70;2.33;;;20.70;99.90;;;;;;5099944;28;20917;-63
2022/08/23 05:52:39;;;;;;;5.67;2.30;;;20.60;99.90;;;;;;5081275;28;20799;-62
2022/08/23 05:55:06;;;;;;;8.73;2.20;;;20.70;99.90;;;;;;5084950;28;20418;-62
2022/08/23 05:57:37;;;;;;;4.87;2.47;;;20.70;99.90;;;;;;5086511;28;20376;-62
2022/08/23 06:00:13;;;;;;;4.32;2.35;;;20.70;99.90;;;;;;5102299;28;20372;-62
2022/08/23 06:02:39;;;;;;;3.47;2.40;;;20.70;99.90;;;;;;5083076;28;20391;-62
2022/08/23 06:05:05;;;;;;;4.63;2.30;;;20.70;99.90;;;;;;5081113;28;20396;-62
2022/08/23 06:07:33;;;;;;;2.92;1.77;;;20.80;99.90;;;;;;5079014;28;20767;-62
2022/08/23 06:09:59;;;;;;;3.22;2.10;;;20.80;99.90;;;;;;5096433;28;20666;-62
2022/08/23 06:12:25;;;;;;;5.82;2.70;;;20.80;99.90;;;;;;5076921;28;20822;-62
2022/08/23 06:14:50;;;;;;;3.95;2.42;;;20.90;99.90;;;;;;5074091;28;20405;-62
2022/08/23 06:17:16;;;;;;;2.38;1.67;;;20.80;99.90;;;;;;5074376;28;20442;-62
2022/08/23 06:19:42;;;;;;;4.03;2.22;;;20.80;99.90;;;;;;5074411;28;20411;-62
2022/08/23 06:22:08;;;;;;;4.07;2.40;;;20.90;99.90;;;;;;5075918;28;20772;-62
2022/08/23 06:24:33;;;;;;;4.43;2.20;;;20.80;99.90;;;;;;5077667;28;20463;-62
2022/08/23 06:26:59;;;;;;;5.18;2.10;;;20.80;99.90;;;;;;5077596;28;20536;-62
2022/08/23 06:29:25;;;;;;;3.92;2.13;;;20.90;99.90;;;;;;5080946;28;20392;-62
2022/08/23 06:31:51;;;;;;;3.10;2.10;;;20.90;99.90;;;;;;5079075;28;20524;-62
2022/08/23 06:34:32;;;;;;;3.33;1.85;;;20.90;99.90;;;;;;5077768;28;20621;-62
2022/08/23 06:37:06;;;;;;;2.70;1.85;;;20.90;99.90;;;;;;5078753;28;20537;-62
2022/08/23 06:39:32;;;;;;;2.20;1.92;;;20.90;99.90;;;;;;5092143;28;20795;-62
2022/08/23 06:42:01;;;;;;;4.55;2.05;;;21.00;99.90;;;;;;5073490;28;20596;-62
2022/08/23 06:44:28;;;;;;;3.00;2.00;;;21.00;99.90;;;;;;5075705;28;20653;-62
2022/08/23 06:46:56;;;;;;;4.03;2.10;;;21.00;99.90;;;;;;5075744;28;20376;-62
2022/08/23 06:49:22;;;;;;;3.65;2.10;;;21.00;99.90;;;;;;5075749;28;20399;-62
2022/08/23 06:51:55;;;;;;;3.95;2.42;;;21.00;99.90;;;;;;5092370;28;20441;-62
2022/08/23 06:54:23;;;;;;;3.97;2.40;;;21.00;99.90;;;;;;5073976;28;20454;-62
2022/08/23 06:56:49;;;;;;;3.08;2.15;;;21.00;99.90;;;;;;5092533;28;20384;-62
2022/08/23 06:59:15;;;;;;;6.28;2.30;;;21.10;99.90;;;;;;5076557;28;20431;-62
2022/08/23 07:01:51;;;;;;;2.25;1.85;;;21.20;99.90;;;;;;5079552;28;20486;-62
2022/08/23 07:04:21;;;;;;;2.25;1.77;;;21.20;99.90;;;;;;5080944;28;20643;-62
2022/08/23 07:06:47;;;;;;;4.30;2.22;;;21.30;99.90;;;;;;5079363;28;20653;-62
2022/08/23 07:09:13;;;;;;;2.38;1.92;;;21.30;99.90;;;;;;5078480;28;20377;-62
2022/08/23 07:11:38;;;;;;;3.20;2.17;;;21.30;99.90;;;;;;5077743;28;20763;-62
2022/08/23 07:14:09;;;;;;;4.97;2.30;;;21.30;99.90;;;;;;5095127;28;20654;-63
2022/08/23 07:16:38;;;;;;;3.55;2.40;;;21.40;99.90;;;;;;5078043;28;20407;-62
2022/08/23 07:19:05;;;;;;;3.63;2.20;;;21.40;99.90;;;;;;5076644;28;20661;-62
2022/08/23 07:21:31;;;;;;;5.05;2.22;;;21.40;99.90;;;;;;5076976;28;20461;-62
2022/08/23 07:23:56;;;;;;;4.10;2.17;;;21.30;99.90;;;;;;5075422;28;20633;-62
2022/08/23 07:26:23;;;;;;;4.13;2.13;;;21.40;99.90;;;;;;5073316;28;20384;-62
2022/08/23 07:28:49;;;;;;;5.78;2.60;;;21.40;99.90;;;;;;5074937;28;20380;-62
2022/08/23 07:31:22;;;;;;;3.35;2.30;;;21.30;99.90;;;;;;5075969;28;20451;-62
2022/08/23 07:33:49;;;;;;;4.05;2.10;;;21.40;99.90;;;;;;5071338;28;20493;-62
2022/08/23 07:36:17;;;;;;;2.60;1.83;;;21.40;99.90;;;;;;5077024;28;20451;-62
2022/08/23 07:38:44;;;;;;;4.40;2.07;;;21.50;99.90;;;;;;5081393;28;20370;-63
2022/08/23 07:41:11;;;;;;;4.30;2.00;;;21.60;99.90;;;;;;5081270;28;20473;-63
2022/08/23 07:43:40;;;;;;;2.03;1.83;;;21.60;99.90;;;;;;5080498;28;20984;-63
2022/08/23 07:46:08;;;;;;;4.00;2.20;;;21.70;99.90;;;;;;5080242;28;20514;-62
2022/08/23 07:48:35;;;;;;;3.88;1.98;;;21.80;99.90;;;;;;5078468;28;20425;-62
2022/08/23 07:51:05;;;;;;;3.55;2.10;;;21.70;99.90;;;;;;5068194;28;20382;-62
2022/08/23 07:53:33;;;;;;;2.63;1.80;;;21.80;99.90;;;;;;5087224;28;20393;-62
2022/08/23 07:56:02;;;;;;;3.72;1.80;;;21.80;99.90;;;;;;5088149;28;20458;-62
2022/08/23 07:58:28;;;;;;;2.80;1.90;;;21.90;99.90;;;;;;5084386;28;20379;-62
2022/08/23 08:00:55;;;;;;;2.23;1.80;;;22.00;99.90;;;;;;5084978;28;20461;-63
2022/08/23 08:03:22;;;;;;;5.35;2.10;;;22.00;99.90;;;;;;5067217;28;20402;-63
2022/08/23 08:05:47;;;;;;;2.30;1.60;;;22.10;99.90;;;;;;5082926;28;20413;-62
2022/08/23 08:08:14;;;;;;;1.92;1.42;;;22.10;99.90;;;;;;5083693;28;20883;-63
2022/08/23 08:10:43;;;;;;;3.83;1.75;;;22.10;99.90;;;;;;5082268;28;20398;-62
2022/08/23 08:13:11;;;;;;;5.37;1.67;;;22.20;99.90;;;;;;5080907;28;20394;-62
2022/08/23 08:15:40;;;;;;;4.00;1.35;;;22.20;99.90;;;;;;5083127;28;20475;-62
2022/08/23 08:18:06;;;;;;;1.95;1.30;;;22.20;99.90;;;;;;5064214;28;20394;-63
2022/08/23 08:20:34;;;;;;;2.87;1.50;;;22.20;99.90;;;;;;5074672;28;20549;-62
2022/08/23 08:23:00;;;;;;;1.80;1.58;;;22.10;99.90;;;;;;5075022;28;20801;-62
2022/08/23 08:25:25;;;;;;;5.15;1.65;;;22.20;99.90;;;;;;5074325;28;20408;-62
2022/08/23 08:27:51;;;;;;;4.17;1.70;;;22.30;99.90;;;;;;5075148;28;20915;-62
2022/08/23 08:30:17;;;;;;;3.63;1.80;;;22.40;99.90;;;;;;5079060;28;20548;-63
2022/08/23 08:32:42;;;;;;;4.00;1.77;;;22.50;99.90;;;;;;5085830;28;20390;-63
2022/08/23 08:35:09;;;;;;;2.50;1.80;;;22.60;99.90;;;;;;5105380;28;20581;-63
2022/08/23 08:37:35;;;;;;;2.67;1.70;;;22.60;99.90;;;;;;5087718;28;20380;-64
2022/08/23 08:40:01;;;;;;;3.33;1.70;;;22.70;99.90;;;;;;5088601;28;20408;-63
2022/08/23 08:42:45;;;;;;;3.78;1.60;;;22.70;99.90;;;;;;5088387;28;20403;-63
2022/08/23 08:45:15;;;;;;;4.47;1.70;;;22.70;99.90;;;;;;5088244;28;20453;-63
2022/08/23 08:47:47;;;;;;;4.80;1.90;;;22.70;99.90;;;;;;5091635;28;20433;-64
2022/08/23 08:50:32;;;;;;;3.75;2.03;;;22.80;99.90;;;;;;5086948;28;20387;-65
2022/08/23 08:53:08;;;;;;;2.60;1.80;;;22.80;99.90;;;;;;5089782;28;20416;-63
2022/08/23 08:55:44;;;;;;;3.78;1.90;;;22.80;99.90;;;;;;5106428;28;20515;-63
2022/08/23 08:58:28;;;;;;;2.40;1.73;;;22.80;99.90;;;;;;5085087;28;20492;-63
2022/08/23 09:00:55;;;;;;;5.13;2.10;;;22.80;99.90;;;;;;5098229;28;20479;-63
2022/08/23 09:03:22;;;;;;;5.07;1.90;;;22.90;99.90;;;;;;5086328;28;20384;-64
2022/08/23 09:06:29;;;;;;;2.95;1.90;;;22.90;99.90;;;;;;5088563;28;20373;-63
2022/08/23 09:09:20;;;;;;;4.50;2.00;;;22.90;99.90;;;;;;4986705;28;20392;-63
2022/08/23 09:12:08;;;;;;;4.00;2.17;;;22.90;99.90;;;;;;4968104;28;20788;-63
2022/08/23 09:14:57;;;;;;;3.40;1.95;;;22.90;99.90;;;;;;5067535;28;20471;-63
2022/08/23 09:17:53;;;;;;;4.28;1.95;;;22.90;99.90;;;;;;5036048;28;20379;-63
2022/08/23 09:20:21;;;;;;;3.95;1.67;;;23.00;99.90;;;;;;5105082;28;21134;-63
2022/08/23 09:23:08;;;;;;;4.72;2.13;;;23.00;99.90;;;;;;5107079;28;20376;-63
2022/08/23 09:25:34;;;;;;;3.90;1.70;;;23.00;99.90;;;;;;5088268;28;20477;-63
2022/08/23 09:28:01;;;;;;;3.38;1.70;;;23.10;99.90;;;;;;5103775;28;20396;-63
2022/08/23 09:30:53;;;;;;;3.30;1.83;;;23.20;99.90;;;;;;5088194;28;20407;-63
2022/08/23 09:33:22;;;;;;;2.67;1.73;;;23.30;99.90;;;;;;5108008;28;20467;-63
2022/08/23 09:36:02;;;;;;;3.00;1.77;;;23.30;99.90;;;;;;5090799;28;20917;-63
2022/08/23 09:38:28;;;;;;;3.33;1.70;;;23.40;99.90;;;;;;5107564;28;20649;-64
2022/08/23 09:40:54;;;;;;;4.57;1.77;;;23.50;99.90;;;;;;5102850;28;21031;-63
2022/08/23 09:43:24;;;;;;;3.60;2.00;;;23.60;99.90;;;;;;5104498;28;20384;-63
2022/08/23 09:45:50;;;;;;;4.18;1.88;;;23.60;99.90;;;;;;5088120;28;20376;-64
2022/08/23 09:48:34;;;;;;;4.30;1.63;;;23.70;99.90;;;;;;5078353;28;20399;-64
2022/08/23 09:51:16;;;;;;;1.80;1.30;;;23.70;99.90;;;;;;5085673;28;20831;-64
2022/08/23 09:53:49;;;;;;;3.10;1.65;;;23.80;99.90;;;;;;5106529;28;21019;-64
2022/08/23 09:56:21;;;;;;;3.75;1.90;;;23.90;99.90;;;;;;5105176;28;20487;-63
2022/08/23 09:58:49;;;;;;;2.67;1.75;;;23.80;99.90;;;;;;5097833;28;20417;-63
2022/08/23 10:01:24;;;;;;;2.33;1.50;;;23.80;99.90;;;;;;5077398;28;20579;-63
2022/08/23 10:04:08;;;;;;;3.55;1.70;;;23.90;99.90;;;;;;5078334;28;20372;-63
2022/08/23 10:06:34;;;;;;;5.35;1.73;;;24.00;99.90;;;;;;5082257;28;20391;-63
2022/08/23 10:09:03;;;;;;;3.13;2.00;;;23.90;99.90;;;;;;5087389;28;20372;-63
2022/08/23 10:11:43;;;;;;;3.50;1.40;;;24.00;99.90;;;;;;5089415;28;20958;-64
2022/08/23 10:14:13;;;;;;;3.50;1.50;;;24.10;99.90;;;;;;5088819;28;20469;-64
2022/08/23 10:17:26;;;;;;;3.43;1.77;;;24.10;99.90;;;;;;5090683;28;20402;-64
2022/08/23 10:20:23;;;;;;;3.45;1.90;;;24.10;99.90;;;;;;5063870;28;20434;-63
2022/08/23 10:23:15;;;;;;;2.83;1.42;;;24.20;99.90;;;;;;5086322;28;20368;-63
2022/08/23 10:26:00;;;;;;;2.33;1.50;;;24.20;99.90;;;;;;5086592;28;20472;-63
2022/08/23 10:31:49;;;;;;;2.13;1.63;;;24.30;99.90;;;;;;5100538;28;20434;-63
2022/08/23 10:34:37;;;;;;;2.78;1.40;;;24.30;99.90;;;;;;5100336;28;20485;-64
2022/08/23 10:37:13;;;;;;;1.92;1.40;;;24.40;99.90;;;;;;5088012;28;20391;-64
2022/08/23 10:40:02;;;;;;;2.83;1.50;;;24.40;99.90;;;;;;5087521;28;20372;-63
2022/08/23 10:43:01;;;;;;;2.80;1.80;;;24.50;99.90;;;;;;5071471;28;21040;-64
2022/08/23 10:45:38;;;;;;;2.20;1.47;;;24.60;99.90;;;;;;5087118;28;20388;-64
2022/08/23 10:48:19;;;;;;;2.05;1.40;;;24.70;99.90;;;;;;5105834;28;20991;-64
2022/08/23 10:50:52;;;;;;;3.17;1.38;;;24.70;99.90;;;;;;5105518;28;20433;-64
2022/08/23 10:53:20;;;;;;;3.13;1.45;;;24.70;99.90;;;;;;5089516;28;20838;-64
2022/08/23 10:56:02;;;;;;;3.30;1.35;;;24.70;99.90;;;;;;5088714;28;20976;-64
2022/08/23 10:58:44;;;;;;;2.35;1.35;;;24.70;99.90;;;;;;5082585;28;20383;-64
2022/08/23 11:01:15;;;;;;;1.67;1.20;;;24.80;99.90;;;;;;5078851;28;20487;-64
2022/08/23 11:03:56;;;;;;;1.95;1.33;;;24.90;99.90;;;;;;5078396;28;20473;-64
2022/08/23 11:06:43;;;;;;;2.90;1.50;;;25.00;99.90;;;;;;5082350;28;20376;-63
2022/08/23 11:09:17;;;;;;;3.70;1.30;;;25.10;99.90;;;;;;5083681;28;20384;-64
2022/08/23 11:11:49;;;;;;;3.03;1.10;;;25.30;99.90;;;;;;5084627;28;20400;-63
2022/08/23 11:14:29;;;;;;;1.90;1.10;;;25.50;99.90;;;;;;5100684;28;20404;-63
2022/08/23 11:16:59;;;;;;;2.35;0.90;;;25.70;99.90;;;;;;5083300;28;20376;-64
2022/08/23 11:19:51;;;;;;;1.20;0.93;;;25.90;99.90;;;;;;5082631;28;20461;-64
2022/08/23 11:22:24;;;;;;;2.20;1.00;;;26.20;99.90;;;;;;5082572;28;20377;-63
2022/08/23 11:25:00;;;;;;;3.57;1.30;;;26.50;99.90;;;;;;5081802;28;21153;-63
2022/08/23 11:27:26;;;;;;;1.88;0.93;;;26.60;99.90;;;;;;5080336;28;21077;-63
2022/08/23 11:29:52;;;;;;;3.57;1.30;;;26.80;99.90;;;;;;5079428;28;20441;-63
2022/08/23 11:32:28;;;;;;;2.42;1.30;;;26.90;99.90;;;;;;5080510;28;20391;-64
2022/08/23 11:35:21;;;;;;;1.58;1.10;;;27.00;99.90;;;;;;5080769;28;20408;-64
2022/08/23 11:37:57;;;;;;;2.35;1.33;;;27.20;99.90;;;;;;5077147;28;20469;-64
2022/08/23 11:40:54;;;;;;;2.05;1.17;;;27.40;99.90;;;;;;5081134;28;20818;-64
2022/08/23 11:43:32;;;;;;;2.22;1.02;;;27.60;99.90;;;;;;5098447;28;20434;-64
2022/08/23 11:46:16;;;;;;;1.42;1.00;;;27.60;99.90;;;;;;5099381;28;20479;-64
2022/08/23 11:48:48;;;;;;;1.30;1.00;;;27.70;99.90;;;;;;5100863;28;20457;-63
2022/08/23 11:52:02;;;;;;;1.70;0.97;;;27.90;99.90;;;;;;5101290;28;20379;-64
2022/08/23 11:54:46;;;;;;;1.77;0.90;;;28.20;99.90;;;;;;5078219;28;20411;-64
2022/08/23 11:57:20;;;;;;;2.17;1.10;;;28.50;99.90;;;;;;5102720;28;20688;-64
2022/08/23 11:59:55;;;;;;;2.75;1.00;;;28.50;99.90;;;;;;5102802;28;20537;-64
2022/08/23 12:02:46;;;;;;;1.67;0.95;;;28.30;99.90;;;;;;5100001;28;20376;-64
2022/08/23 12:05:21;;;;;;;2.67;1.13;;;28.60;99.90;;;;;;5081411;28;20683;-64
2022/08/23 12:07:58;;;;;;;1.33;1.13;;;28.80;99.90;;;;;;5082041;28;20411;-66
2022/08/23 12:10:44;;;;;;;2.03;1.20;;;29.00;99.90;;;;;;5083037;28;20396;-64
2022/08/23 12:13:19;;;;;;;1.30;1.10;;;29.20;99.90;;;;;;5067366;28;20384;-64
2022/08/23 12:16:05;;;;;;;1.70;1.10;;;29.40;99.90;;;;;;5084073;28;20404;-64
2022/08/23 12:18:35;;;;;;;1.23;1.00;;;29.50;99.90;;;;;;5103802;28;20460;-64
2022/08/23 12:21:04;;;;;;;3.30;1.30;;;29.60;99.90;;;;;;5085603;28;20380;-64
2022/08/23 12:23:41;;;;;;;3.30;1.30;;;29.70;99.40;;;;;;5106049;28;20477;-64
2022/08/23 12:26:23;;;;;;;2.00;1.10;;;29.50;99.10;;;;;;5085178;28;20469;-64
2022/08/23 12:28:56;;;;;;;5.03;1.40;;;29.70;99.70;;;;;;5077707;28;20991;-64
2022/08/23 12:31:24;;;;;;;1.70;1.50;;;29.90;98.00;;;;;;5094482;28;20380;-64
2022/08/23 12:34:11;;;;;;;2.37;1.60;;;30.10;98.60;;;;;;5076057;28;20502;-64
2022/08/23 12:36:55;;;;;;;1.80;1.48;;;30.40;98.50;;;;;;5075475;28;20757;-64
2022/08/23 12:39:38;;;;;;;2.50;1.40;;;30.70;98.10;;;;;;5079450;28;20448;-64
2022/08/23 12:42:23;;;;;;;3.30;1.50;;;30.80;98.00;;;;;;5075928;28;20447;-64
2022/08/23 12:45:05;;;;;;;2.00;1.35;;;30.80;97.60;;;;;;5078008;28;20392;-64
2022/08/23 12:47:31;;;;;;;3.65;2.03;;;30.90;97.90;;;;;;5080569;28;20683;-64
2022/08/23 12:50:11;;;;;;;2.20;1.52;;;31.10;96.60;;;;;;5079578;28;20652;-64
2022/08/23 12:52:37;;;;;;;2.58;1.70;;;31.20;96.60;;;;;;5081010;28;20656;-64
2022/08/23 12:55:15;;;;;;;3.30;1.60;;;31.40;96.50;;;;;;5100259;28;20395;-64
2022/08/23 12:57:44;;;;;;;2.60;1.30;;;31.30;95.70;;;;;;5082424;28;20822;-64
2022/08/23 13:00:19;;;;;;;1.55;1.00;;;31.00;94.90;;;;;;5082923;28;20392;-64
2022/08/23 13:02:56;;;;;;;2.42;1.20;;;31.40;95.10;;;;;;5080603;28;20668;-64
2022/08/23 13:05:42;;;;;;;1.45;1.10;;;31.40;95.20;;;;;;5078363;28;20691;-64
2022/08/23 13:08:14;;;;;;;2.53;1.45;;;31.80;96.00;;;;;;5075546;28;20380;-64
2022/08/23 13:10:43;;;;;;;2.50;1.38;;;31.80;94.70;;;;;;5095774;28;20388;-64
2022/08/23 13:13:17;;;;;;;2.80;1.10;;;31.70;95.00;;;;;;5085650;28;20465;-64
2022/08/23 13:15:51;;;;;;;1.63;1.20;;;32.10;95.30;;;;;;5088616;28;20780;-64
2022/08/23 13:18:40;;;;;;;1.95;1.20;;;32.10;94.50;;;;;;5083134;28;20548;-64
2022/08/23 13:21:30;;;;;;;1.63;0.90;;;32.40;94.40;;;;;;5079117;28;20377;-64